createdAt,value
2023-03-30T00:03:08.024Z,79
2023-03-30T00:05:08.426Z,79
2023-03-30T00:07:07.782Z,79
2023-03-30T00:09:05.690Z,79
2023-03-30T00:11:10.946Z,80
2023-03-30T00:13:08.206Z,80
2023-03-30T00:15:14.752Z,80
2023-03-30T00:17:07.784Z,80
2023-03-30T00:19:10.986Z,80
2023-03-30T00:21:07.899Z,80
2023-03-30T00:23:07.793Z,80
2023-03-30T00:25:07.714Z,80
2023-03-30T00:27:06.440Z,80
2023-03-30T00:29:07.804Z,80
2023-03-30T00:31:05.810Z,80
2023-03-30T00:33:10.897Z,79
2023-03-30T00:35:07.796Z,79
2023-03-30T00:39:07.684Z,79
2023-03-30T00:41:08.098Z,79
2023-03-30T00:43:08.039Z,79
2023-03-30T00:45:07.807Z,79
2023-03-30T00:47:11.160Z,79
2023-03-30T00:49:07.791Z,79
2023-03-30T00:51:11.000Z,79
2023-03-30T00:53:07.823Z,79
2023-03-30T00:55:07.691Z,79
2023-03-30T00:57:07.826Z,79
2023-03-30T00:59:07.846Z,79
2023-03-30T01:01:16.199Z,79
2023-03-30T01:03:07.944Z,79
2023-03-30T01:07:07.780Z,80
2023-03-30T01:09:14.823Z,79
2023-03-30T01:11:07.800Z,79
2023-03-30T01:13:11.139Z,79
2023-03-30T01:15:07.789Z,79
2023-03-30T01:17:07.824Z,79
2023-03-30T01:19:08.101Z,79
2023-03-30T01:21:07.804Z,79
2023-03-30T01:23:07.647Z,80
2023-03-30T01:25:07.814Z,80
2023-03-30T01:27:07.579Z,79
2023-03-30T01:29:07.853Z,79
2023-03-30T01:31:06.008Z,79
2023-03-30T01:33:07.882Z,79
2023-03-30T01:35:07.937Z,79
2023-03-30T01:37:07.826Z,79
2023-03-30T01:39:07.854Z,79
2023-03-30T01:41:07.840Z,79
2023-03-30T01:43:06.292Z,79
2023-03-30T01:45:08.175Z,79
2023-03-30T01:47:07.887Z,79
2023-03-30T01:51:14.756Z,81
2023-03-30T01:53:07.855Z,81
2023-03-30T01:55:07.849Z,80
2023-03-30T01:57:07.879Z,80
2023-03-30T01:59:07.841Z,81
2023-03-30T02:01:07.609Z,81
2023-03-30T02:03:07.869Z,81
2023-03-30T02:07:10.784Z,81
2023-03-30T02:09:07.831Z,81
2023-03-30T02:11:07.905Z,82
2023-03-30T02:13:07.815Z,82
2023-03-30T02:15:07.868Z,83
2023-03-30T02:17:07.897Z,84
2023-03-30T02:19:07.876Z,84
2023-03-30T02:21:06.385Z,84
2023-03-30T02:23:07.869Z,84
2023-03-30T02:25:07.880Z,83
2023-03-30T02:27:07.839Z,83
2023-03-30T02:29:07.839Z,83
2023-03-30T02:31:07.785Z,83
2023-03-30T02:33:06.283Z,83
2023-03-30T02:35:07.771Z,83
2023-03-30T02:37:05.863Z,83
2023-03-30T02:39:09.621Z,83
2023-03-30T02:41:14.498Z,83
2023-03-30T02:43:07.771Z,83
2023-03-30T02:45:06.424Z,83
2023-03-30T02:47:07.938Z,83
2023-03-30T02:49:07.837Z,83
2023-03-30T02:51:07.165Z,84
2023-03-30T02:53:07.851Z,84
2023-03-30T02:55:07.769Z,84
2023-03-30T02:57:06.395Z,84
2023-03-30T02:59:07.166Z,84
2023-03-30T03:01:08.065Z,84
2023-03-30T03:03:11.090Z,84
2023-03-30T03:05:07.797Z,84
2023-03-30T03:07:07.847Z,84
2023-03-30T03:09:07.871Z,84
2023-03-30T03:11:07.995Z,84
2023-03-30T03:13:07.799Z,84
2023-03-30T03:15:05.509Z,84
2023-03-30T03:17:05.125Z,84
2023-03-30T03:19:07.812Z,84
2023-03-30T03:21:11.032Z,84
2023-03-30T03:23:07.804Z,84
2023-03-30T03:25:15.267Z,84
2023-03-30T03:27:07.757Z,84
2023-03-30T03:29:07.820Z,84
2023-03-30T03:31:08.126Z,84
2023-03-30T03:33:07.904Z,85
2023-03-30T03:35:07.863Z,85
2023-03-30T03:37:11.051Z,85
2023-03-30T03:39:08.176Z,86
2023-03-30T03:41:07.828Z,86
2023-03-30T03:43:07.793Z,86
2023-03-30T03:45:05.960Z,86
2023-03-30T03:47:07.790Z,86
2023-03-30T03:49:11.286Z,86
2023-03-30T03:51:07.904Z,86
2023-03-30T03:53:07.892Z,85
2023-03-30T03:55:07.883Z,86
2023-03-30T03:57:07.911Z,86
2023-03-30T03:59:13.980Z,86
2023-03-30T04:01:08.146Z,87
2023-03-30T04:03:11.094Z,87
2023-03-30T04:05:10.797Z,87
2023-03-30T04:09:07.826Z,87
2023-03-30T04:11:11.168Z,87
2023-03-30T04:15:07.838Z,88
2023-03-30T04:17:08.100Z,88
2023-03-30T04:19:07.868Z,88
2023-03-30T04:21:07.840Z,88
2023-03-30T04:23:07.868Z,88
2023-03-30T04:25:18.452Z,88
2023-03-30T04:27:07.802Z,88
2023-03-30T04:29:07.839Z,88
2023-03-30T04:31:11.161Z,88
2023-03-30T04:33:07.899Z,88
2023-03-30T04:35:07.979Z,88
2023-03-30T04:37:07.926Z,88
2023-03-30T04:39:11.043Z,88
2023-03-30T04:41:07.852Z,88
2023-03-30T04:43:07.905Z,88
2023-03-30T04:45:07.871Z,89
2023-03-30T04:47:11.660Z,89
2023-03-30T04:49:07.863Z,89
2023-03-30T04:51:07.838Z,89
2023-03-30T04:55:07.902Z,89
2023-03-30T04:57:14.697Z,89
2023-03-30T04:59:07.841Z,89
2023-03-30T05:01:11.520Z,89
2023-03-30T05:03:08.005Z,89
2023-03-30T05:05:07.866Z,89
2023-03-30T05:07:07.827Z,90
2023-03-30T05:09:07.840Z,90
2023-03-30T05:13:07.891Z,90
2023-03-30T05:15:07.874Z,90
2023-03-30T05:17:07.829Z,90
2023-03-30T05:19:07.869Z,89
2023-03-30T05:21:11.299Z,89
2023-03-30T05:23:07.858Z,89
2023-03-30T05:25:07.763Z,90
2023-03-30T05:27:07.857Z,89
2023-03-30T05:29:07.883Z,89
2023-03-30T05:31:07.927Z,89
2023-03-30T05:33:07.857Z,89
2023-03-30T05:35:16.002Z,89
2023-03-30T05:37:07.832Z,89
2023-03-30T05:39:07.857Z,89
2023-03-30T05:41:07.842Z,89
2023-03-30T05:43:09.252Z,89
2023-03-30T05:45:07.800Z,89
2023-03-30T05:47:07.824Z,89
2023-03-30T05:49:05.186Z,89
2023-03-30T05:51:08.189Z,88
2023-03-30T05:53:07.821Z,88
2023-03-30T05:55:11.502Z,88
2023-03-30T05:57:07.873Z,89
2023-03-30T05:59:07.845Z,89
2023-03-30T06:01:11.048Z,89
2023-03-30T06:03:07.908Z,89
2023-03-30T06:05:11.171Z,89
2023-03-30T06:07:07.801Z,89
2023-03-30T06:09:10.803Z,88
2023-03-30T06:11:07.909Z,88
2023-03-30T06:13:11.031Z,88
2023-03-30T06:15:07.828Z,88
2023-03-30T06:17:07.820Z,88
2023-03-30T06:19:07.821Z,88
2023-03-30T06:23:14.669Z,88
2023-03-30T06:25:07.790Z,88
2023-03-30T06:27:07.756Z,87
2023-03-30T06:29:08.111Z,87
2023-03-30T06:31:11.057Z,87
2023-03-30T06:35:07.811Z,87
2023-03-30T06:37:11.073Z,87
2023-03-30T06:39:07.951Z,87
2023-03-30T06:41:07.824Z,86
2023-03-30T06:43:08.579Z,86
2023-03-30T06:45:08.171Z,86
2023-03-30T06:47:11.406Z,86
2023-03-30T06:49:07.801Z,86
2023-03-30T06:51:07.977Z,86
2023-03-30T06:53:07.806Z,85
2023-03-30T06:55:07.839Z,85
2023-03-30T06:57:05.181Z,85
2023-03-30T06:59:07.871Z,85
2023-03-30T07:01:07.970Z,85
2023-03-30T07:03:07.958Z,84
2023-03-30T07:05:07.888Z,84
2023-03-30T07:07:07.852Z,84
2023-03-30T07:13:07.874Z,85
2023-03-30T07:15:07.889Z,85
2023-03-30T07:17:08.220Z,85
2023-03-30T07:19:07.861Z,85
2023-03-30T07:21:12.814Z,85
2023-03-30T07:23:07.830Z,85
2023-03-30T07:25:07.910Z,85
2023-03-30T07:27:07.902Z,85
2023-03-30T07:29:06.667Z,85
2023-03-30T07:31:11.533Z,85
2023-03-30T07:33:07.946Z,85
2023-03-30T07:35:07.909Z,85
2023-03-30T07:37:07.796Z,85
2023-03-30T07:39:07.898Z,85
2023-03-30T07:41:05.336Z,85
2023-03-30T07:43:07.877Z,85
2023-03-30T07:45:07.908Z,85
2023-03-30T07:47:07.831Z,84
2023-03-30T07:49:08.503Z,84
2023-03-30T07:51:08.230Z,84
2023-03-30T07:53:11.243Z,84
2023-03-30T07:55:07.951Z,84
2023-03-30T07:57:11.051Z,84
2023-03-30T07:59:08.135Z,85
2023-03-30T08:03:07.954Z,85
2023-03-30T08:07:07.847Z,84
2023-03-30T08:09:07.356Z,85
2023-03-30T08:11:08.229Z,85
2023-03-30T08:13:10.976Z,85
2023-03-30T08:17:11.050Z,86
2023-03-30T08:19:07.851Z,85
2023-03-30T08:21:07.874Z,86
2023-03-30T08:23:10.843Z,86
2023-03-30T08:25:07.837Z,86
2023-03-30T08:27:07.927Z,86
2023-03-30T08:29:10.996Z,86
2023-03-30T08:31:07.947Z,86
2023-03-30T08:33:09.377Z,86
2023-03-30T08:35:07.843Z,86
2023-03-30T08:37:07.865Z,86
2023-03-30T08:39:10.870Z,86
2023-03-30T08:41:07.848Z,86
2023-03-30T08:43:09.320Z,86
2023-03-30T08:45:11.072Z,87
2023-03-30T08:47:07.822Z,87
2023-03-30T08:49:09.429Z,87
2023-03-30T08:51:08.372Z,86
2023-03-30T08:53:07.858Z,86
2023-03-30T08:59:07.867Z,85
2023-03-30T09:01:08.338Z,84
2023-03-30T09:05:10.894Z,84
2023-03-30T09:07:07.873Z,84
2023-03-30T09:13:07.876Z,85
2023-03-30T09:15:11.185Z,84
2023-03-30T09:17:11.108Z,84
2023-03-30T09:19:06.337Z,84
2023-03-30T09:21:10.824Z,84
2023-03-30T09:23:07.884Z,84
2023-03-30T09:25:07.849Z,84
2023-03-30T09:27:07.842Z,84
2023-03-30T09:29:07.647Z,84
2023-03-30T09:31:07.973Z,84
2023-03-30T09:33:08.012Z,84
2023-03-30T09:35:11.530Z,84
2023-03-30T09:37:11.024Z,85
2023-03-30T09:39:07.851Z,84
2023-03-30T09:41:07.855Z,84
2023-03-30T09:43:07.859Z,84
2023-03-30T09:45:07.887Z,84
2023-03-30T09:47:07.891Z,84
2023-03-30T09:49:07.878Z,85
2023-03-30T09:51:07.897Z,84
2023-03-30T09:53:09.564Z,84
2023-03-30T09:55:07.846Z,85
2023-03-30T09:57:09.575Z,84
2023-03-30T09:59:07.850Z,84
2023-03-30T10:01:11.043Z,84
2023-03-30T10:03:14.756Z,84
2023-03-30T10:05:07.840Z,84
2023-03-30T10:07:18.185Z,84
2023-03-30T10:09:11.500Z,84
2023-03-30T10:11:07.908Z,84
2023-03-30T10:13:14.120Z,85
2023-03-30T10:15:07.976Z,85
2023-03-30T10:17:09.486Z,85
2023-03-30T10:19:07.906Z,85
2023-03-30T10:21:08.257Z,85
2023-03-30T10:23:07.882Z,85
2023-03-30T10:25:09.839Z,85
2023-03-30T10:27:07.912Z,85
2023-03-30T10:29:11.176Z,85
2023-03-30T10:31:11.051Z,85
2023-03-30T10:33:07.955Z,86
2023-03-30T10:35:07.995Z,86
2023-03-30T10:37:07.810Z,86
2023-03-30T10:39:07.875Z,86
2023-03-30T10:41:07.873Z,86
2023-03-30T10:43:07.878Z,86
2023-03-30T10:45:09.585Z,86
2023-03-30T10:47:07.845Z,86
2023-03-30T10:49:07.873Z,86
2023-03-30T10:51:14.901Z,86
2023-03-30T10:53:07.861Z,87
2023-03-30T10:55:07.884Z,87
2023-03-30T10:57:14.028Z,87
2023-03-30T10:59:07.888Z,87
2023-03-30T11:01:08.081Z,87
2023-03-30T11:03:14.854Z,88
2023-03-30T11:07:07.883Z,88
2023-03-30T11:09:07.903Z,88
2023-03-30T11:11:07.866Z,87
2023-03-30T11:13:08.270Z,88
2023-03-30T11:15:07.926Z,88
2023-03-30T11:17:09.362Z,88
2023-03-30T11:19:07.965Z,89
2023-03-30T11:21:07.934Z,89
2023-03-30T11:23:07.918Z,89
2023-03-30T11:25:07.936Z,88
2023-03-30T11:27:09.543Z,88
2023-03-30T11:29:18.181Z,88
2023-03-30T11:31:07.931Z,88
2023-03-30T11:33:07.976Z,88
2023-03-30T11:35:07.868Z,87
2023-03-30T11:37:07.647Z,87
2023-03-30T11:39:09.313Z,87
2023-03-30T11:41:11.092Z,88
2023-03-30T11:43:11.111Z,87
2023-03-30T11:45:07.971Z,87
2023-03-30T11:47:08.351Z,87
2023-03-30T11:51:17.366Z,87
2023-03-30T11:53:11.305Z,87
2023-03-30T11:55:12.467Z,87
2023-03-30T11:57:11.191Z,87
2023-03-30T11:59:07.912Z,87
2023-03-30T12:01:08.028Z,87
2023-03-30T12:03:07.929Z,86
2023-03-30T12:05:08.373Z,86
2023-03-30T12:11:10.905Z,86
2023-03-30T12:13:07.927Z,86
2023-03-30T12:15:07.871Z,85
2023-03-30T12:17:07.967Z,86
2023-03-30T12:19:11.321Z,86
2023-03-30T12:21:07.900Z,85
2023-03-30T12:23:07.898Z,86
2023-03-30T12:27:09.084Z,86
2023-03-30T12:29:33.101Z,86
2023-03-30T12:31:07.984Z,85
2023-03-30T12:33:11.213Z,85
2023-03-30T12:35:07.827Z,85
2023-03-30T12:39:07.911Z,85
2023-03-30T12:41:07.892Z,85
2023-03-30T12:43:07.804Z,85
2023-03-30T12:45:07.889Z,85
2023-03-30T12:47:09.090Z,85
2023-03-30T12:49:10.879Z,85
2023-03-30T12:51:07.860Z,85
2023-03-30T12:53:08.116Z,85
2023-03-30T12:55:07.969Z,85
2023-03-30T12:57:08.088Z,85
2023-03-30T12:59:12.853Z,85
2023-03-30T13:01:09.620Z,85
2023-03-30T13:03:07.969Z,85
2023-03-30T13:05:11.102Z,85
2023-03-30T13:07:07.968Z,85
2023-03-30T13:09:14.051Z,85
2023-03-30T13:11:07.952Z,85
2023-03-30T13:13:07.924Z,86
2023-03-30T13:15:11.135Z,86
2023-03-30T13:17:08.129Z,85
2023-03-30T13:21:07.970Z,85
2023-03-30T13:23:08.255Z,85
2023-03-30T13:25:11.486Z,85
2023-03-30T13:27:07.823Z,85
2023-03-30T13:29:11.812Z,84
2023-03-30T13:31:07.979Z,85
2023-03-30T13:33:07.887Z,85
2023-03-30T13:35:08.203Z,84
2023-03-30T13:39:07.966Z,84
2023-03-30T13:41:11.196Z,84
2023-03-30T13:43:07.972Z,84
2023-03-30T13:45:07.967Z,84
2023-03-30T13:47:08.428Z,85
2023-03-30T13:49:08.011Z,85
2023-03-30T13:51:07.935Z,85
2023-03-30T13:53:08.060Z,85
2023-03-30T13:55:14.196Z,84
2023-03-30T13:57:08.035Z,84
2023-03-30T13:59:07.809Z,84
2023-03-30T14:01:11.272Z,84
2023-03-30T14:03:08.034Z,84
2023-03-30T14:05:14.752Z,84
2023-03-30T14:07:08.003Z,84
2023-03-30T14:09:08.039Z,84
2023-03-30T14:13:08.097Z,84
2023-03-30T14:15:07.992Z,84
2023-03-30T14:17:07.910Z,84
2023-03-30T14:19:11.226Z,84
2023-03-30T14:21:07.988Z,84
2023-03-30T14:27:08.000Z,85
2023-03-30T14:29:11.010Z,84
2023-03-30T14:31:08.057Z,85
2023-03-30T14:33:08.124Z,84
2023-03-30T14:35:08.097Z,84
2023-03-30T14:37:08.017Z,84
2023-03-30T14:39:07.993Z,84
2023-03-30T14:41:11.498Z,84
2023-03-30T14:43:12.582Z,84
2023-03-30T14:45:07.951Z,84
2023-03-30T14:47:07.945Z,83
2023-03-30T14:49:10.918Z,82
2023-03-30T14:51:07.991Z,82
2023-03-30T14:53:10.919Z,82
2023-03-30T14:55:12.256Z,82
2023-03-30T14:57:08.082Z,82
2023-03-30T15:01:09.543Z,82
2023-03-30T15:03:19.799Z,82
2023-03-30T15:07:11.232Z,81
2023-03-30T15:09:07.997Z,81
2023-03-30T15:11:07.905Z,81
2023-03-30T15:13:07.924Z,82
2023-03-30T15:15:07.953Z,81
2023-03-30T15:17:09.616Z,81
2023-03-30T15:19:07.982Z,81
2023-03-30T15:21:08.204Z,81
2023-03-30T15:23:07.949Z,81
2023-03-30T15:25:07.994Z,81
2023-03-30T15:27:08.048Z,80
2023-03-30T15:29:14.381Z,80
2023-03-30T15:31:08.306Z,80
2023-03-30T15:33:08.132Z,80
2023-03-30T15:35:08.043Z,81
2023-03-30T15:37:08.032Z,80
2023-03-30T15:39:08.098Z,80
2023-03-30T15:41:08.220Z,80
2023-03-30T15:43:07.940Z,80
2023-03-30T15:45:07.981Z,80
2023-03-30T15:47:08.031Z,80
2023-03-30T15:49:08.023Z,80
2023-03-30T15:51:08.290Z,80
2023-03-30T15:53:07.924Z,80
2023-03-30T15:55:18.960Z,80
2023-03-30T15:57:07.990Z,80
2023-03-30T15:59:16.180Z,80
2023-03-30T16:01:08.166Z,80
2023-03-30T16:03:14.459Z,80
2023-03-30T16:07:07.926Z,80
2023-03-30T16:09:11.493Z,80
2023-03-30T16:11:07.987Z,80
2023-03-30T16:13:07.733Z,79
2023-03-30T16:15:08.289Z,79
2023-03-30T16:19:09.639Z,79
2023-03-30T16:21:08.156Z,79
2023-03-30T16:23:08.027Z,79
2023-03-30T16:27:09.724Z,78
2023-03-30T16:29:08.054Z,78
2023-03-30T16:31:08.005Z,78
2023-03-30T16:33:08.046Z,78
2023-03-30T16:35:09.629Z,77
2023-03-30T16:37:07.968Z,78
2023-03-30T16:39:07.941Z,78
2023-03-30T16:41:09.604Z,78
2023-03-30T16:43:08.607Z,77
2023-03-30T16:45:07.924Z,77
2023-03-30T16:47:10.977Z,78
2023-03-30T16:49:12.271Z,78
2023-03-30T16:51:08.246Z,77
2023-03-30T16:53:08.345Z,76
2023-03-30T16:55:08.331Z,76
2023-03-30T16:57:09.870Z,76
2023-03-30T17:01:08.157Z,74
2023-03-30T17:03:10.959Z,75
2023-03-30T17:07:07.986Z,73
2023-03-30T17:09:10.931Z,74
2023-03-30T17:11:08.097Z,74
2023-03-30T17:13:10.978Z,74
2023-03-30T17:15:07.980Z,75
2023-03-30T17:17:07.940Z,76
2023-03-30T17:19:11.027Z,78
2023-03-30T17:23:07.992Z,79
2023-03-30T17:25:11.159Z,80
2023-03-30T17:27:08.244Z,80
2023-03-30T17:29:07.982Z,81
2023-03-30T17:31:09.964Z,81
2023-03-30T17:33:07.986Z,81
2023-03-30T17:37:08.003Z,83
2023-03-30T17:39:08.015Z,83
2023-03-30T17:41:08.220Z,83
2023-03-30T17:43:08.163Z,83
2023-03-30T17:45:08.048Z,83
2023-03-30T17:47:08.031Z,83
2023-03-30T17:49:08.371Z,83
2023-03-30T17:51:11.008Z,82
2023-03-30T17:53:08.034Z,83
2023-03-30T17:55:08.103Z,83
2023-03-30T17:57:11.547Z,84
2023-03-30T17:59:08.003Z,84
2023-03-30T18:01:08.483Z,84
2023-03-30T18:05:08.056Z,84
2023-03-30T18:07:08.053Z,84
2023-03-30T18:09:09.655Z,84
2023-03-30T18:11:09.675Z,84
2023-03-30T18:13:07.965Z,83
2023-03-30T18:17:07.946Z,81
2023-03-30T18:19:08.349Z,82
2023-03-30T18:21:08.099Z,82
2023-03-30T18:23:07.954Z,81
2023-03-30T18:25:08.274Z,81
2023-03-30T18:27:08.040Z,81
2023-03-30T18:29:08.373Z,80
2023-03-30T18:31:11.017Z,80
2023-03-30T18:33:08.086Z,80
2023-03-30T18:35:11.484Z,81
2023-03-30T18:37:15.081Z,81
2023-03-30T18:39:07.946Z,81
2023-03-30T18:41:10.984Z,82
2023-03-30T18:43:08.232Z,82
2023-03-30T18:45:08.036Z,82
2023-03-30T18:47:09.652Z,82
2023-03-30T18:49:08.020Z,82
2023-03-30T18:51:08.043Z,82
2023-03-30T18:53:08.305Z,83
2023-03-30T18:55:08.087Z,82
2023-03-30T18:57:07.991Z,83
2023-03-30T18:59:08.320Z,83
2023-03-30T19:01:11.207Z,83
2023-03-30T19:03:10.967Z,83
2023-03-30T19:05:07.927Z,84
2023-03-30T19:07:11.308Z,84
2023-03-30T19:09:11.383Z,84
2023-03-30T19:11:08.025Z,84
2023-03-30T19:13:07.821Z,85
2023-03-30T19:15:11.775Z,85
2023-03-30T19:17:07.960Z,85
2023-03-30T19:19:08.019Z,85
2023-03-30T19:21:10.889Z,85
2023-03-30T19:23:07.974Z,85
2023-03-30T19:25:11.612Z,85
2023-03-30T19:27:08.041Z,85
2023-03-30T19:29:07.940Z,85
2023-03-30T19:31:11.102Z,85
2023-03-30T19:33:07.972Z,85
2023-03-30T19:35:11.248Z,85
2023-03-30T19:37:07.956Z,85
2023-03-30T19:39:11.351Z,85
2023-03-30T19:41:10.968Z,85
2023-03-30T19:43:07.998Z,85
2023-03-30T19:45:07.950Z,85
2023-03-30T19:47:07.973Z,85
2023-03-30T19:49:07.985Z,85
2023-03-30T19:53:11.537Z,85
2023-03-30T19:55:07.984Z,85
2023-03-30T19:57:08.033Z,85
2023-03-30T19:59:08.311Z,85
2023-03-30T20:01:07.969Z,85
2023-03-30T20:03:08.319Z,85
2023-03-30T20:05:07.982Z,85
2023-03-30T20:07:11.011Z,84
2023-03-30T20:09:11.213Z,84
2023-03-30T20:11:07.954Z,84
2023-03-30T20:13:08.049Z,84
2023-03-30T20:15:07.975Z,84
2023-03-30T20:17:08.323Z,84
2023-03-30T20:19:16.076Z,84
2023-03-30T20:21:07.992Z,84
2023-03-30T20:23:07.980Z,84
2023-03-30T20:25:08.064Z,84
2023-03-30T20:27:07.931Z,84
2023-03-30T20:31:08.128Z,84
2023-03-30T20:33:08.840Z,85
2023-03-30T20:35:08.010Z,85
2023-03-30T20:37:08.058Z,85
2023-03-30T20:39:08.329Z,85
2023-03-30T20:41:07.945Z,85
2023-03-30T20:43:08.022Z,85
2023-03-30T20:45:07.969Z,85
2023-03-30T20:47:09.676Z,85
2023-03-30T20:49:08.005Z,84
2023-03-30T20:51:10.993Z,84
2023-03-30T20:53:07.700Z,84
2023-03-30T20:55:08.036Z,85
2023-03-30T20:59:08.238Z,84
2023-03-30T21:01:11.284Z,84
2023-03-30T21:05:11.010Z,85
2023-03-30T21:07:08.015Z,84
2023-03-30T21:09:08.045Z,84
2023-03-30T21:11:08.079Z,84
2023-03-30T21:13:07.885Z,84
2023-03-30T21:15:07.990Z,84
2023-03-30T21:17:09.758Z,84
2023-03-30T21:19:07.985Z,84
2023-03-30T21:21:08.013Z,84
2023-03-30T21:23:07.972Z,84
2023-03-30T21:25:08.066Z,84
2023-03-30T21:27:10.982Z,84
2023-03-30T21:29:08.005Z,84
2023-03-30T21:31:08.086Z,84
2023-03-30T21:33:11.170Z,84
2023-03-30T21:35:07.987Z,84
2023-03-30T21:37:11.255Z,85
2023-03-30T21:39:07.960Z,85
2023-03-30T21:41:11.382Z,85
2023-03-30T21:43:07.978Z,84
2023-03-30T21:45:07.975Z,84
2023-03-30T21:47:11.447Z,84
2023-03-30T21:49:08.004Z,84
2023-03-30T21:51:08.254Z,84
2023-03-30T21:53:07.990Z,84
2023-03-30T21:55:07.945Z,83
2023-03-30T21:57:08.050Z,83
2023-03-30T21:59:08.306Z,83
2023-03-30T22:01:12.154Z,83
2023-03-30T22:03:09.523Z,83
2023-03-30T22:05:06.525Z,83
2023-03-30T22:09:10.916Z,83
2023-03-30T22:11:07.958Z,83
2023-03-30T22:13:09.614Z,83
2023-03-30T22:15:08.010Z,83
2023-03-30T22:17:08.000Z,83
2023-03-30T22:19:06.451Z,83
2023-03-30T22:21:08.220Z,83
2023-03-30T22:23:07.985Z,82
2023-03-30T22:27:07.982Z,83
2023-03-30T22:29:11.550Z,83
2023-03-30T22:31:11.327Z,83
2023-03-30T22:33:07.986Z,83
2023-03-30T22:35:11.144Z,83
2023-03-30T22:37:08.043Z,83
2023-03-30T22:39:11.188Z,83
2023-03-30T22:41:08.083Z,83
2023-03-30T22:43:08.018Z,83
2023-03-30T22:45:07.951Z,82
2023-03-30T22:49:08.035Z,83
2023-03-30T22:51:08.018Z,83
2023-03-30T22:55:08.094Z,83
2023-03-30T22:57:08.031Z,83
2023-03-30T22:59:11.243Z,83
2023-03-30T23:01:08.013Z,83
2023-03-30T23:03:11.248Z,83
2023-03-30T23:05:07.959Z,83
2023-03-30T23:07:07.991Z,83
2023-03-30T23:09:07.975Z,83
2023-03-30T23:11:08.053Z,83
2023-03-30T23:13:08.011Z,83
2023-03-30T23:15:07.984Z,83
2023-03-30T23:17:08.082Z,83
2023-03-30T23:19:08.064Z,83
2023-03-30T23:21:07.976Z,83
2023-03-30T23:23:07.978Z,84
2023-03-30T23:25:08.285Z,84
2023-03-30T23:27:12.783Z,84
2023-03-30T23:29:07.979Z,84
2023-03-30T23:31:08.020Z,84
2023-03-30T23:33:08.034Z,84
2023-03-30T23:35:08.031Z,84
2023-03-30T23:37:11.190Z,84
2023-03-30T23:39:11.377Z,84
2023-03-30T23:41:08.051Z,84
2023-03-30T23:43:07.957Z,84
2023-03-30T23:45:07.984Z,84
2023-03-30T23:47:14.922Z,84
2023-03-30T23:49:07.970Z,84
2023-03-30T23:51:07.976Z,84
2023-03-30T23:53:11.061Z,85
2023-03-30T23:55:07.986Z,85
2023-03-30T23:57:08.071Z,85
2023-03-30T23:59:07.988Z,85
